Terminal Aerodrome Forecast
Issued by NWS Corpus Christi, TX

Current Version | Previous Version | Text Only | Print | Product List | Glossary Off
Versions: 1 2 3 4 5 6 7 8 9 10 11 12 13 14 15 16 17 18 19 20 21

000
FTUS44 KCRP 300500
TAFCRP
TAF
KCRP 300521Z 3006/3106 09006KT P6SM FEW015 BKN250
     FM300700 06004KT 5SM BR SCT008 BKN250
      TEMPO 3007/3011 2SM BR BKN008
     FM301100 03013G19KT P6SM BKN015 OVC035
     FM301600 05015G21KT P6SM SCT020 BKN035
     FM302000 07017G24KT P6SM BKN018 OVC025
     FM310200 08014KT P6SM OVC012=

USA.gov is the U.S. government's official web portal to all federal, state and local government web resources and services.